sensor_id;sensor_type;location;lat;lon;timestamp;temperature;humidity
24146;DHT22;12308;50.948;4.706;2023-01-29T00:02:15;0.10;99.90
24146;DHT22;12308;50.948;4.706;2023-01-29T00:04:41;0.10;99.90
24146;DHT22;12308;50.948;4.706;2023-01-29T00:07:07;0.10;99.90
24146;DHT22;12308;50.948;4.706;2023-01-29T00:09:33;0.10;99.90
24146;DHT22;12308;50.948;4.706;2023-01-29T00:11:58;0.10;99.90
24146;DHT22;12308;50.948;4.706;2023-01-29T00:14:24;0.10;99.90
24146;DHT22;12308;50.948;4.706;2023-01-29T00:16:51;0.10;99.90
24146;DHT22;12308;50.948;4.706;2023-01-29T00:19:17;0.10;99.90
24146;DHT22;12308;50.948;4.706;2023-01-29T00:21:44;0.10;99.90
24146;DHT22;12308;50.948;4.706;2023-01-29T00:24:10;0.00;99.90
24146;DHT22;12308;50.948;4.706;2023-01-29T00:26:36;0.00;99.90
24146;DHT22;12308;50.948;4.706;2023-01-29T00:29:03;0.00;99.90
24146;DHT22;12308;50.948;4.706;2023-01-29T00:31:29;-0.10;99.90
24146;DHT22;12308;50.948;4.706;2023-01-29T00:33:56;-0.10;99.90
24146;DHT22;12308;50.948;4.706;2023-01-29T00:36:22;-0.10;99.90
24146;DHT22;12308;50.948;4.706;2023-01-29T00:38:54;-0.10;99.90
24146;DHT22;12308;50.948;4.706;2023-01-29T00:41:26;-0.20;99.90
24146;DHT22;12308;50.948;4.706;2023-01-29T00:44:10;-0.30;99.90
24146;DHT22;12308;50.948;4.706;2023-01-29T00:46:55;-0.30;99.90
24146;DHT22;12308;50.948;4.706;2023-01-29T00:49:20;-0.20;99.90
24146;DHT22;12308;50.948;4.706;2023-01-29T00:51:46;-0.20;99.90
24146;DHT22;12308;50.948;4.706;2023-01-29T00:54:32;-0.20;99.90
24146;DHT22;12308;50.948;4.706;2023-01-29T00:56:57;-0.20;99.90
24146;DHT22;12308;50.948;4.706;2023-01-29T00:59:23;-0.30;99.90
24146;DHT22;12308;50.948;4.706;2023-01-29T01:01:49;-0.30;99.90
24146;DHT22;12308;50.948;4.706;2023-01-29T01:04:33;-0.40;99.90
24146;DHT22;12308;50.948;4.706;2023-01-29T01:06:58;-0.50;99.90
24146;DHT22;12308;50.948;4.706;2023-01-29T01:09:24;-0.50;99.90
24146;DHT22;12308;50.948;4.706;2023-01-29T01:12:08;-0.40;99.90
24146;DHT22;12308;50.948;4.706;2023-01-29T01:14:35;-0.50;99.90
24146;DHT22;12308;50.948;4.706;2023-01-29T01:17:00;-0.60;99.90
24146;DHT22;12308;50.948;4.706;2023-01-29T01:19:26;-0.60;99.90
24146;DHT22;12308;50.948;4.706;2023-01-29T01:21:52;-0.60;99.90
24146;DHT22;12308;50.948;4.706;2023-01-29T01:24:17;-0.70;99.90
24146;DHT22;12308;50.948;4.706;2023-01-29T01:26:45;-0.80;99.90
24146;DHT22;12308;50.948;4.706;2023-01-29T01:29:11;-0.80;99.90
24146;DHT22;12308;50.948;4.706;2023-01-29T01:31:37;-0.80;99.90
24146;DHT22;12308;50.948;4.706;2023-01-29T01:34:02;-0.80;99.90
24146;DHT22;12308;50.948;4.706;2023-01-29T01:36:28;-0.70;99.90
24146;DHT22;12308;50.948;4.706;2023-01-29T01:38:57;-0.60;99.90
24146;DHT22;12308;50.948;4.706;2023-01-29T01:41:22;-0.60;99.90
24146;DHT22;12308;50.948;4.706;2023-01-29T01:43:55;-0.70;99.90
24146;DHT22;12308;50.948;4.706;2023-01-29T01:46:23;-0.60;99.90
24146;DHT22;12308;50.948;4.706;2023-01-29T01:49:14;-0.60;99.90
24146;DHT22;12308;50.948;4.706;2023-01-29T01:51:47;-0.60;99.90
24146;DHT22;12308;50.948;4.706;2023-01-29T01:54:20;-0.60;99.90
24146;DHT22;12308;50.948;4.706;2023-01-29T01:56:49;-0.60;99.90
24146;DHT22;12308;50.948;4.706;2023-01-29T01:59:21;-0.70;99.90
24146;DHT22;12308;50.948;4.706;2023-01-29T02:01:50;-0.80;99.90
24146;DHT22;12308;50.948;4.706;2023-01-29T02:04:22;-0.70;99.90
24146;DHT22;12308;50.948;4.706;2023-01-29T02:07:11;-0.70;99.90
24146;DHT22;12308;50.948;4.706;2023-01-29T02:10:07;-0.60;99.90
24146;DHT22;12308;50.948;4.706;2023-01-29T02:12:36;-0.60;99.90
24146;DHT22;12308;50.948;4.706;2023-01-29T02:15:02;-0.60;99.90
24146;DHT22;12308;50.948;4.706;2023-01-29T02:17:28;-0.60;99.90
24146;DHT22;12308;50.948;4.706;2023-01-29T02:20:32;-0.60;99.90
24146;DHT22;12308;50.948;4.706;2023-01-29T02:26:03;-0.40;99.90
24146;DHT22;12308;50.948;4.706;2023-01-29T02:28:46;-0.40;99.90
24146;DHT22;12308;50.948;4.706;2023-01-29T02:31:37;-0.40;99.90
24146;DHT22;12308;50.948;4.706;2023-01-29T02:37:28;-0.40;99.90
24146;DHT22;12308;50.948;4.706;2023-01-29T02:42:40;-0.40;99.90
24146;DHT22;12308;50.948;4.706;2023-01-29T02:45:21;-0.30;99.90
24146;DHT22;12308;50.948;4.706;2023-01-29T02:47:56;-0.50;99.90
24146;DHT22;12308;50.948;4.706;2023-01-29T02:50:30;-0.40;99.90
24146;DHT22;12308;50.948;4.706;2023-01-29T02:53:15;-0.40;99.90
24146;DHT22;12308;50.948;4.706;2023-01-29T02:55:52;-0.50;99.90
24146;DHT22;12308;50.948;4.706;2023-01-29T02:58:40;-0.70;99.90
24146;DHT22;12308;50.948;4.706;2023-01-29T03:01:14;-0.70;99.90
24146;DHT22;12308;50.948;4.706;2023-01-29T03:03:42;-0.70;99.90
24146;DHT22;12308;50.948;4.706;2023-01-29T03:06:26;-0.70;99.90
24146;DHT22;12308;50.948;4.706;2023-01-29T03:08:58;-0.50;99.90
24146;DHT22;12308;50.948;4.706;2023-01-29T03:11:29;-0.60;99.90
24146;DHT22;12308;50.948;4.706;2023-01-29T03:14:27;-0.60;99.90
24146;DHT22;12308;50.948;4.706;2023-01-29T03:17:15;-0.70;99.90
24146;DHT22;12308;50.948;4.706;2023-01-29T03:19:43;-0.70;99.90
24146;DHT22;12308;50.948;4.706;2023-01-29T03:22:12;-0.80;99.90
24146;DHT22;12308;50.948;4.706;2023-01-29T03:24:45;-0.90;99.90
24146;DHT22;12308;50.948;4.706;2023-01-29T03:30:26;-1.00;99.90
24146;DHT22;12308;50.948;4.706;2023-01-29T03:33:13;-1.10;99.90
24146;DHT22;12308;50.948;4.706;2023-01-29T03:35:50;-1.10;99.90
24146;DHT22;12308;50.948;4.706;2023-01-29T03:38:18;-1.10;99.90
24146;DHT22;12308;50.948;4.706;2023-01-29T03:41:03;-1.10;99.90
24146;DHT22;12308;50.948;4.706;2023-01-29T03:46:29;-1.20;99.90
24146;DHT22;12308;50.948;4.706;2023-01-29T03:51:37;-1.10;99.90
24146;DHT22;12308;50.948;4.706;2023-01-29T03:57:02;-1.10;99.90
24146;DHT22;12308;50.948;4.706;2023-01-29T03:59:43;-1.20;99.90
24146;DHT22;12308;50.948;4.706;2023-01-29T04:02:15;-1.10;99.90
24146;DHT22;12308;50.948;4.706;2023-01-29T04:04:45;-1.20;99.90
24146;DHT22;12308;50.948;4.706;2023-01-29T04:07:18;-1.20;99.90
24146;DHT22;12308;50.948;4.706;2023-01-29T04:10:09;-1.20;99.90
24146;DHT22;12308;50.948;4.706;2023-01-29T04:12:46;-1.10;99.90
24146;DHT22;12308;50.948;4.706;2023-01-29T04:15:14;-1.00;99.90
24146;DHT22;12308;50.948;4.706;2023-01-29T04:17:42;-1.10;99.90
24146;DHT22;12308;50.948;4.706;2023-01-29T04:20:10;-1.10;99.90
24146;DHT22;12308;50.948;4.706;2023-01-29T04:22:37;-1.00;99.90
24146;DHT22;12308;50.948;4.706;2023-01-29T04:25:09;-1.10;99.90
24146;DHT22;12308;50.948;4.706;2023-01-29T04:32:54;-1.00;99.90
24146;DHT22;12308;50.948;4.706;2023-01-29T04:38:46;-0.80;99.90
24146;DHT22;12308;50.948;4.706;2023-01-29T04:41:46;-0.80;99.90
24146;DHT22;12308;50.948;4.706;2023-01-29T04:44:32;-0.90;99.90
24146;DHT22;12308;50.948;4.706;2023-01-29T04:47:28;-1.00;99.90
24146;DHT22;12308;50.948;4.706;2023-01-29T04:50:10;-1.00;99.90
24146;DHT22;12308;50.948;4.706;2023-01-29T04:52:40;-0.80;99.90
24146;DHT22;12308;50.948;4.706;2023-01-29T05:00:27;-0.50;99.90
24146;DHT22;12308;50.948;4.706;2023-01-29T05:03:01;-0.50;99.90
24146;DHT22;12308;50.948;4.706;2023-01-29T05:05:29;-0.50;99.90
24146;DHT22;12308;50.948;4.706;2023-01-29T05:07:56;-0.30;99.90
24146;DHT22;12308;50.948;4.706;2023-01-29T05:10:24;-0.30;99.90
24146;DHT22;12308;50.948;4.706;2023-01-29T05:13:00;-0.30;99.90
24146;DHT22;12308;50.948;4.706;2023-01-29T05:15:39;-0.20;99.90
24146;DHT22;12308;50.948;4.706;2023-01-29T05:18:06;-0.20;99.90
24146;DHT22;12308;50.948;4.706;2023-01-29T05:20:35;-0.10;99.90
24146;DHT22;12308;50.948;4.706;2023-01-29T05:23:03;0.10;99.90
24146;DHT22;12308;50.948;4.706;2023-01-29T05:25:31;0.10;99.90
24146;DHT22;12308;50.948;4.706;2023-01-29T05:27:57;0.20;99.90
24146;DHT22;12308;50.948;4.706;2023-01-29T05:30:35;0.30;99.90
24146;DHT22;12308;50.948;4.706;2023-01-29T05:33:01;0.20;99.90
24146;DHT22;12308;50.948;4.706;2023-01-29T05:35:27;0.30;99.90
24146;DHT22;12308;50.948;4.706;2023-01-29T05:37:56;0.30;99.90
24146;DHT22;12308;50.948;4.706;2023-01-29T05:40:23;0.30;99.90
24146;DHT22;12308;50.948;4.706;2023-01-29T05:42:49;0.40;99.90
24146;DHT22;12308;50.948;4.706;2023-01-29T05:45:16;0.50;99.90
24146;DHT22;12308;50.948;4.706;2023-01-29T05:47:42;0.60;99.90
24146;DHT22;12308;50.948;4.706;2023-01-29T05:50:08;0.60;99.90
24146;DHT22;12308;50.948;4.706;2023-01-29T05:52:34;0.60;99.90
24146;DHT22;12308;50.948;4.706;2023-01-29T05:55:00;0.70;99.90
24146;DHT22;12308;50.948;4.706;2023-01-29T05:57:25;0.70;99.90
24146;DHT22;12308;50.948;4.706;2023-01-29T05:59:51;0.90;99.90
24146;DHT22;12308;50.948;4.706;2023-01-29T06:02:17;0.80;99.90
24146;DHT22;12308;50.948;4.706;2023-01-29T06:04:42;0.70;99.90
24146;DHT22;12308;50.948;4.706;2023-01-29T06:07:08;0.90;99.90
24146;DHT22;12308;50.948;4.706;2023-01-29T06:09:34;1.00;99.90
24146;DHT22;12308;50.948;4.706;2023-01-29T06:11:59;1.10;99.90
24146;DHT22;12308;50.948;4.706;2023-01-29T06:14:25;1.00;99.90
24146;DHT22;12308;50.948;4.706;2023-01-29T06:16:50;1.10;99.90
24146;DHT22;12308;50.948;4.706;2023-01-29T06:19:16;1.10;99.90
24146;DHT22;12308;50.948;4.706;2023-01-29T06:21:42;1.10;99.90
24146;DHT22;12308;50.948;4.706;2023-01-29T06:24:08;1.10;99.90
24146;DHT22;12308;50.948;4.706;2023-01-29T06:26:33;1.30;99.90
24146;DHT22;12308;50.948;4.706;2023-01-29T06:28:59;1.30;99.90
24146;DHT22;12308;50.948;4.706;2023-01-29T06:31:25;1.20;99.90
24146;DHT22;12308;50.948;4.706;2023-01-29T06:33:50;1.20;99.90
24146;DHT22;12308;50.948;4.706;2023-01-29T06:36:16;1.20;99.90
24146;DHT22;12308;50.948;4.706;2023-01-29T06:38:42;1.20;99.90
24146;DHT22;12308;50.948;4.706;2023-01-29T06:41:12;1.20;99.90
24146;DHT22;12308;50.948;4.706;2023-01-29T06:43:39;1.30;99.90
24146;DHT22;12308;50.948;4.706;2023-01-29T06:46:06;1.30;99.90
24146;DHT22;12308;50.948;4.706;2023-01-29T06:48:32;1.40;99.90
24146;DHT22;12308;50.948;4.706;2023-01-29T06:51:08;1.40;99.90
24146;DHT22;12308;50.948;4.706;2023-01-29T06:53:35;1.40;99.90
24146;DHT22;12308;50.948;4.706;2023-01-29T06:56:04;1.30;99.90
24146;DHT22;12308;50.948;4.706;2023-01-29T06:58:30;1.40;99.90
24146;DHT22;12308;50.948;4.706;2023-01-29T07:01:06;1.50;99.90
24146;DHT22;12308;50.948;4.706;2023-01-29T07:03:33;1.50;99.90
24146;DHT22;12308;50.948;4.706;2023-01-29T07:05:58;1.50;99.90
24146;DHT22;12308;50.948;4.706;2023-01-29T07:08:24;1.50;99.90
24146;DHT22;12308;50.948;4.706;2023-01-29T07:10:50;1.60;99.90
24146;DHT22;12308;50.948;4.706;2023-01-29T07:13:15;1.60;99.90
24146;DHT22;12308;50.948;4.706;2023-01-29T07:15:41;1.70;99.90
24146;DHT22;12308;50.948;4.706;2023-01-29T07:18:09;1.60;99.90
24146;DHT22;12308;50.948;4.706;2023-01-29T07:20:41;1.70;99.90
24146;DHT22;12308;50.948;4.706;2023-01-29T07:23:14;1.70;99.90
24146;DHT22;12308;50.948;4.706;2023-01-29T07:25:40;1.70;99.90
24146;DHT22;12308;50.948;4.706;2023-01-29T07:28:06;1.50;99.90
24146;DHT22;12308;50.948;4.706;2023-01-29T07:30:32;1.70;99.90
24146;DHT22;12308;50.948;4.706;2023-01-29T07:33:03;1.80;99.90
24146;DHT22;12308;50.948;4.706;2023-01-29T07:35:28;1.80;99.90
24146;DHT22;12308;50.948;4.706;2023-01-29T07:37:56;1.70;99.90
24146;DHT22;12308;50.948;4.706;2023-01-29T07:40:22;1.70;99.90
24146;DHT22;12308;50.948;4.706;2023-01-29T07:42:47;1.80;99.90
24146;DHT22;12308;50.948;4.706;2023-01-29T07:45:13;1.90;99.90
24146;DHT22;12308;50.948;4.706;2023-01-29T07:47:39;1.90;99.90
24146;DHT22;12308;50.948;4.706;2023-01-29T07:50:05;2.00;99.90
24146;DHT22;12308;50.948;4.706;2023-01-29T07:52:32;2.20;99.90
24146;DHT22;12308;50.948;4.706;2023-01-29T07:54:58;2.10;99.90
24146;DHT22;12308;50.948;4.706;2023-01-29T07:57:24;2.10;99.90
24146;DHT22;12308;50.948;4.706;2023-01-29T07:59:50;2.20;99.90
24146;DHT22;12308;50.948;4.706;2023-01-29T08:02:15;2.10;99.90
24146;DHT22;12308;50.948;4.706;2023-01-29T08:04:41;2.00;99.90
24146;DHT22;12308;50.948;4.706;2023-01-29T08:07:06;2.10;99.90
24146;DHT22;12308;50.948;4.706;2023-01-29T08:09:34;2.00;99.90
24146;DHT22;12308;50.948;4.706;2023-01-29T08:12:00;2.10;99.90
24146;DHT22;12308;50.948;4.706;2023-01-29T08:14:26;2.20;99.90
24146;DHT22;12308;50.948;4.706;2023-01-29T08:16:51;2.20;99.90
24146;DHT22;12308;50.948;4.706;2023-01-29T08:19:17;2.30;99.90
24146;DHT22;12308;50.948;4.706;2023-01-29T08:21:43;2.40;99.90
24146;DHT22;12308;50.948;4.706;2023-01-29T08:24:08;2.40;99.90
24146;DHT22;12308;50.948;4.706;2023-01-29T08:26:34;2.30;99.90
24146;DHT22;12308;50.948;4.706;2023-01-29T08:29:00;2.50;99.90
24146;DHT22;12308;50.948;4.706;2023-01-29T08:31:25;2.50;99.90
24146;DHT22;12308;50.948;4.706;2023-01-29T08:33:53;2.60;99.90
24146;DHT22;12308;50.948;4.706;2023-01-29T08:36:19;2.60;99.90
24146;DHT22;12308;50.948;4.706;2023-01-29T08:38:52;2.60;99.90
24146;DHT22;12308;50.948;4.706;2023-01-29T08:41:18;2.50;99.90
24146;DHT22;12308;50.948;4.706;2023-01-29T08:43:44;2.50;99.90
24146;DHT22;12308;50.948;4.706;2023-01-29T08:46:11;2.50;99.90
24146;DHT22;12308;50.948;4.706;2023-01-29T08:48:36;2.50;99.90
24146;DHT22;12308;50.948;4.706;2023-01-29T08:51:02;2.60;99.90
24146;DHT22;12308;50.948;4.706;2023-01-29T08:53:29;2.80;99.90
24146;DHT22;12308;50.948;4.706;2023-01-29T08:55:55;2.80;99.90
24146;DHT22;12308;50.948;4.706;2023-01-29T08:58:21;2.90;99.90
24146;DHT22;12308;50.948;4.706;2023-01-29T09:00:46;3.00;99.90
24146;DHT22;12308;50.948;4.706;2023-01-29T09:03:12;3.00;99.90
24146;DHT22;12308;50.948;4.706;2023-01-29T09:05:39;3.10;99.90
24146;DHT22;12308;50.948;4.706;2023-01-29T09:08:06;3.10;99.90
24146;DHT22;12308;50.948;4.706;2023-01-29T09:10:32;3.10;99.90
24146;DHT22;12308;50.948;4.706;2023-01-29T09:12:58;3.00;99.90
24146;DHT22;12308;50.948;4.706;2023-01-29T09:15:24;3.10;99.90
24146;DHT22;12308;50.948;4.706;2023-01-29T09:17:50;3.10;99.90
24146;DHT22;12308;50.948;4.706;2023-01-29T09:20:16;3.20;99.90
24146;DHT22;12308;50.948;4.706;2023-01-29T09:22:42;3.30;99.90
24146;DHT22;12308;50.948;4.706;2023-01-29T09:25:08;3.30;99.90
24146;DHT22;12308;50.948;4.706;2023-01-29T09:27:35;3.10;99.90
24146;DHT22;12308;50.948;4.706;2023-01-29T09:30:01;3.30;99.90
24146;DHT22;12308;50.948;4.706;2023-01-29T09:32:27;3.20;99.90
24146;DHT22;12308;50.948;4.706;2023-01-29T09:34:55;3.20;99.90
24146;DHT22;12308;50.948;4.706;2023-01-29T09:37:21;3.10;99.90
24146;DHT22;12308;50.948;4.706;2023-01-29T09:39:49;3.20;99.90
24146;DHT22;12308;50.948;4.706;2023-01-29T09:42:25;3.10;99.90
24146;DHT22;12308;50.948;4.706;2023-01-29T09:45:14;3.20;99.90
24146;DHT22;12308;50.948;4.706;2023-01-29T09:47:41;3.10;99.90
24146;DHT22;12308;50.948;4.706;2023-01-29T09:50:27;3.20;99.90
24146;DHT22;12308;50.948;4.706;2023-01-29T09:56:05;3.30;99.90
24146;DHT22;12308;50.948;4.706;2023-01-29T09:58:39;3.20;99.90
24146;DHT22;12308;50.948;4.706;2023-01-29T10:04:02;3.30;99.90
24146;DHT22;12308;50.948;4.706;2023-01-29T10:14:59;3.60;99.90
24146;DHT22;12308;50.948;4.706;2023-01-29T10:20:44;3.70;99.90
24146;DHT22;12308;50.948;4.706;2023-01-29T10:23:25;3.80;99.90
24146;DHT22;12308;50.948;4.706;2023-01-29T10:25:52;3.80;99.90
24146;DHT22;12308;50.948;4.706;2023-01-29T10:28:30;3.80;99.90
24146;DHT22;12308;50.948;4.706;2023-01-29T10:31:05;3.70;99.90
24146;DHT22;12308;50.948;4.706;2023-01-29T10:36:41;3.70;99.90
24146;DHT22;12308;50.948;4.706;2023-01-29T10:39:21;3.90;99.90
24146;DHT22;12308;50.948;4.706;2023-01-29T10:42:17;3.90;99.90
24146;DHT22;12308;50.948;4.706;2023-01-29T10:53:25;4.10;99.90
24146;DHT22;12308;50.948;4.706;2023-01-29T11:00:58;4.20;99.90
24146;DHT22;12308;50.948;4.706;2023-01-29T11:03:25;4.10;99.90
24146;DHT22;12308;50.948;4.706;2023-01-29T11:09:06;4.40;99.90
24146;DHT22;12308;50.948;4.706;2023-01-29T11:12:15;4.50;99.90
24146;DHT22;12308;50.948;4.706;2023-01-29T11:14:54;4.70;99.90
24146;DHT22;12308;50.948;4.706;2023-01-29T11:17:22;4.80;99.90
24146;DHT22;12308;50.948;4.706;2023-01-29T11:19:50;4.80;99.90
24146;DHT22;12308;50.948;4.706;2023-01-29T11:22:20;4.80;99.90
24146;DHT22;12308;50.948;4.706;2023-01-29T11:25:05;4.80;99.90
24146;DHT22;12308;50.948;4.706;2023-01-29T11:27:33;4.90;99.90
24146;DHT22;12308;50.948;4.706;2023-01-29T11:30:00;4.90;99.90
24146;DHT22;12308;50.948;4.706;2023-01-29T11:32:31;4.90;99.90
24146;DHT22;12308;50.948;4.706;2023-01-29T11:37:41;5.00;99.90
24146;DHT22;12308;50.948;4.706;2023-01-29T11:42:49;5.00;99.90
24146;DHT22;12308;50.948;4.706;2023-01-29T11:45:26;5.10;99.90
24146;DHT22;12308;50.948;4.706;2023-01-29T11:47:55;5.00;99.90
24146;DHT22;12308;50.948;4.706;2023-01-29T11:50:24;5.10;99.90
24146;DHT22;12308;50.948;4.706;2023-01-29T11:52:53;5.20;99.90
24146;DHT22;12308;50.948;4.706;2023-01-29T11:55:27;5.30;99.90
24146;DHT22;12308;50.948;4.706;2023-01-29T11:58:03;5.40;99.90
24146;DHT22;12308;50.948;4.706;2023-01-29T12:00:32;5.40;99.90
24146;DHT22;12308;50.948;4.706;2023-01-29T12:05:38;5.70;99.90
24146;DHT22;12308;50.948;4.706;2023-01-29T12:08:14;5.80;99.90
24146;DHT22;12308;50.948;4.706;2023-01-29T12:10:42;5.80;99.90
24146;DHT22;12308;50.948;4.706;2023-01-29T12:15:45;6.00;99.90
24146;DHT22;12308;50.948;4.706;2023-01-29T12:21:19;6.00;99.90
24146;DHT22;12308;50.948;4.706;2023-01-29T12:24:00;5.90;99.90
24146;DHT22;12308;50.948;4.706;2023-01-29T12:26:50;5.80;99.90
24146;DHT22;12308;50.948;4.706;2023-01-29T12:34:57;5.70;99.90
24146;DHT22;12308;50.948;4.706;2023-01-29T12:37:47;5.80;99.90
24146;DHT22;12308;50.948;4.706;2023-01-29T12:40:16;5.90;99.90
24146;DHT22;12308;50.948;4.706;2023-01-29T12:42:49;5.90;99.90
24146;DHT22;12308;50.948;4.706;2023-01-29T12:45:20;6.00;99.90
24146;DHT22;12308;50.948;4.706;2023-01-29T12:47:56;6.10;99.90
24146;DHT22;12308;50.948;4.706;2023-01-29T12:50:34;6.00;99.90
24146;DHT22;12308;50.948;4.706;2023-01-29T12:53:34;6.00;99.90
24146;DHT22;12308;50.948;4.706;2023-01-29T12:58:53;6.10;99.90
24146;DHT22;12308;50.948;4.706;2023-01-29T13:01:37;6.20;99.90
24146;DHT22;12308;50.948;4.706;2023-01-29T13:04:13;6.10;99.90
24146;DHT22;12308;50.948;4.706;2023-01-29T13:06:58;5.80;99.90
24146;DHT22;12308;50.948;4.706;2023-01-29T13:09:28;5.80;99.90
24146;DHT22;12308;50.948;4.706;2023-01-29T13:12:18;5.90;99.90
24146;DHT22;12308;50.948;4.706;2023-01-29T13:14:58;6.00;99.90
24146;DHT22;12308;50.948;4.706;2023-01-29T13:17:45;6.10;99.90
24146;DHT22;12308;50.948;4.706;2023-01-29T13:20:18;6.10;99.90
24146;DHT22;12308;50.948;4.706;2023-01-29T13:22:46;6.20;99.90
24146;DHT22;12308;50.948;4.706;2023-01-29T13:25:16;6.10;99.90
24146;DHT22;12308;50.948;4.706;2023-01-29T13:27:43;5.90;99.90
24146;DHT22;12308;50.948;4.706;2023-01-29T13:30:30;6.00;99.90
24146;DHT22;12308;50.948;4.706;2023-01-29T13:32:58;6.00;99.90
24146;DHT22;12308;50.948;4.706;2023-01-29T13:35:42;6.00;99.90
24146;DHT22;12308;50.948;4.706;2023-01-29T13:38:26;6.10;99.90
24146;DHT22;12308;50.948;4.706;2023-01-29T13:40:56;6.10;99.90
24146;DHT22;12308;50.948;4.706;2023-01-29T13:43:24;6.10;99.90
24146;DHT22;12308;50.948;4.706;2023-01-29T13:45:51;6.10;99.90
24146;DHT22;12308;50.948;4.706;2023-01-29T13:50:46;6.10;99.90
24146;DHT22;12308;50.948;4.706;2023-01-29T13:53:38;6.10;99.90
24146;DHT22;12308;50.948;4.706;2023-01-29T13:56:27;6.40;99.90
24146;DHT22;12308;50.948;4.706;2023-01-29T13:58:56;6.50;99.90
24146;DHT22;12308;50.948;4.706;2023-01-29T14:06:51;6.20;99.90
24146;DHT22;12308;50.948;4.706;2023-01-29T14:09:32;6.20;99.90
24146;DHT22;12308;50.948;4.706;2023-01-29T14:11:58;6.20;99.90
24146;DHT22;12308;50.948;4.706;2023-01-29T14:14:50;6.30;99.90
24146;DHT22;12308;50.948;4.706;2023-01-29T14:17:18;6.30;99.90
24146;DHT22;12308;50.948;4.706;2023-01-29T14:19:52;6.30;99.90
24146;DHT22;12308;50.948;4.706;2023-01-29T14:22:24;6.20;99.90
24146;DHT22;12308;50.948;4.706;2023-01-29T14:24:57;6.20;99.90
24146;DHT22;12308;50.948;4.706;2023-01-29T14:27:24;6.20;99.90
24146;DHT22;12308;50.948;4.706;2023-01-29T14:29:51;6.10;99.90
24146;DHT22;12308;50.948;4.706;2023-01-29T14:32:24;6.10;99.90
24146;DHT22;12308;50.948;4.706;2023-01-29T14:35:19;6.10;99.90
24146;DHT22;12308;50.948;4.706;2023-01-29T14:37:47;6.10;99.90
24146;DHT22;12308;50.948;4.706;2023-01-29T14:53:08;6.20;99.90
24146;DHT22;12308;50.948;4.706;2023-01-29T14:58:21;6.10;99.90
24146;DHT22;12308;50.948;4.706;2023-01-29T15:00:51;6.10;99.90
24146;DHT22;12308;50.948;4.706;2023-01-29T15:03:26;6.10;99.90
24146;DHT22;12308;50.948;4.706;2023-01-29T15:05:53;6.20;99.90
24146;DHT22;12308;50.948;4.706;2023-01-29T15:08:39;6.20;99.90
24146;DHT22;12308;50.948;4.706;2023-01-29T15:11:36;6.10;99.90
24146;DHT22;12308;50.948;4.706;2023-01-29T15:14:17;6.00;99.90
24146;DHT22;12308;50.948;4.706;2023-01-29T15:16:56;6.00;99.90
24146;DHT22;12308;50.948;4.706;2023-01-29T15:22:16;6.00;99.90
24146;DHT22;12308;50.948;4.706;2023-01-29T15:24:43;6.00;99.90
24146;DHT22;12308;50.948;4.706;2023-01-29T15:27:15;6.10;99.90
24146;DHT22;12308;50.948;4.706;2023-01-29T15:29:46;6.20;99.90
24146;DHT22;12308;50.948;4.706;2023-01-29T15:32:34;6.30;99.90
24146;DHT22;12308;50.948;4.706;2023-01-29T15:35:17;6.30;99.90
24146;DHT22;12308;50.948;4.706;2023-01-29T15:38:04;6.20;99.90
24146;DHT22;12308;50.948;4.706;2023-01-29T15:40:31;6.10;99.90
24146;DHT22;12308;50.948;4.706;2023-01-29T15:42:57;6.10;99.90
24146;DHT22;12308;50.948;4.706;2023-01-29T15:47:53;6.10;99.90
24146;DHT22;12308;50.948;4.706;2023-01-29T15:50:20;6.00;99.90
24146;DHT22;12308;50.948;4.706;2023-01-29T15:52:51;5.90;99.90
24146;DHT22;12308;50.948;4.706;2023-01-29T15:55:19;5.90;99.90
24146;DHT22;12308;50.948;4.706;2023-01-29T15:57:46;5.90;99.90
24146;DHT22;12308;50.948;4.706;2023-01-29T16:00:26;6.00;99.90
24146;DHT22;12308;50.948;4.706;2023-01-29T16:02:53;5.90;99.90
24146;DHT22;12308;50.948;4.706;2023-01-29T16:05:22;6.00;99.90
24146;DHT22;12308;50.948;4.706;2023-01-29T16:07:51;5.90;99.90
24146;DHT22;12308;50.948;4.706;2023-01-29T16:10:20;5.80;99.90
24146;DHT22;12308;50.948;4.706;2023-01-29T16:12:48;5.80;99.90
24146;DHT22;12308;50.948;4.706;2023-01-29T16:17:52;5.70;99.90
24146;DHT22;12308;50.948;4.706;2023-01-29T16:20:29;5.80;99.90
24146;DHT22;12308;50.948;4.706;2023-01-29T16:22:56;5.90;99.90
24146;DHT22;12308;50.948;4.706;2023-01-29T16:25:22;5.70;99.90
24146;DHT22;12308;50.948;4.706;2023-01-29T16:27:48;5.60;99.90
24146;DHT22;12308;50.948;4.706;2023-01-29T16:30:15;5.80;99.90
24146;DHT22;12308;50.948;4.706;2023-01-29T16:32:42;5.70;99.90
24146;DHT22;12308;50.948;4.706;2023-01-29T16:35:14;5.70;99.90
24146;DHT22;12308;50.948;4.706;2023-01-29T16:37:41;5.60;99.90
24146;DHT22;12308;50.948;4.706;2023-01-29T16:40:24;5.60;99.90
24146;DHT22;12308;50.948;4.706;2023-01-29T16:46:09;5.60;99.90
24146;DHT22;12308;50.948;4.706;2023-01-29T16:48:40;5.50;99.90
24146;DHT22;12308;50.948;4.706;2023-01-29T16:51:14;5.50;99.90
24146;DHT22;12308;50.948;4.706;2023-01-29T16:53:56;5.40;99.90
24146;DHT22;12308;50.948;4.706;2023-01-29T16:56:22;5.50;99.90
24146;DHT22;12308;50.948;4.706;2023-01-29T16:58:50;5.40;99.90
24146;DHT22;12308;50.948;4.706;2023-01-29T17:01:17;5.50;99.90
24146;DHT22;12308;50.948;4.706;2023-01-29T17:03:43;5.60;99.90
24146;DHT22;12308;50.948;4.706;2023-01-29T17:06:10;5.50;99.90
24146;DHT22;12308;50.948;4.706;2023-01-29T17:08:38;5.40;99.90
24146;DHT22;12308;50.948;4.706;2023-01-29T17:11:05;5.30;99.90
24146;DHT22;12308;50.948;4.706;2023-01-29T17:13:38;5.40;99.90
24146;DHT22;12308;50.948;4.706;2023-01-29T17:16:29;5.30;99.90
24146;DHT22;12308;50.948;4.706;2023-01-29T17:18:58;5.30;99.90
24146;DHT22;12308;50.948;4.706;2023-01-29T17:21:25;5.30;99.90
24146;DHT22;12308;50.948;4.706;2023-01-29T17:23:51;5.40;99.90
24146;DHT22;12308;50.948;4.706;2023-01-29T17:26:17;5.40;99.90
24146;DHT22;12308;50.948;4.706;2023-01-29T17:28:43;5.30;99.90
24146;DHT22;12308;50.948;4.706;2023-01-29T17:31:09;5.40;99.90
24146;DHT22;12308;50.948;4.706;2023-01-29T17:33:37;5.40;99.90
24146;DHT22;12308;50.948;4.706;2023-01-29T17:36:04;5.30;99.90
24146;DHT22;12308;50.948;4.706;2023-01-29T17:38:30;5.20;99.90
24146;DHT22;12308;50.948;4.706;2023-01-29T17:41:03;5.30;99.90
24146;DHT22;12308;50.948;4.706;2023-01-29T17:43:30;5.20;99.90
24146;DHT22;12308;50.948;4.706;2023-01-29T17:45:55;5.20;99.90
24146;DHT22;12308;50.948;4.706;2023-01-29T17:48:25;5.30;99.90
24146;DHT22;12308;50.948;4.706;2023-01-29T17:50:55;5.30;99.90
24146;DHT22;12308;50.948;4.706;2023-01-29T17:53:22;5.30;99.90
24146;DHT22;12308;50.948;4.706;2023-01-29T17:55:49;5.20;99.90
24146;DHT22;12308;50.948;4.706;2023-01-29T17:58:20;5.00;99.90
24146;DHT22;12308;50.948;4.706;2023-01-29T18:00:46;5.00;99.90
24146;DHT22;12308;50.948;4.706;2023-01-29T18:03:12;5.00;99.90
24146;DHT22;12308;50.948;4.706;2023-01-29T18:05:38;5.00;99.90
24146;DHT22;12308;50.948;4.706;2023-01-29T18:08:30;5.10;99.90
24146;DHT22;12308;50.948;4.706;2023-01-29T18:10:57;5.10;99.90
24146;DHT22;12308;50.948;4.706;2023-01-29T18:13:25;5.10;99.90
24146;DHT22;12308;50.948;4.706;2023-01-29T18:15:52;5.10;99.90
24146;DHT22;12308;50.948;4.706;2023-01-29T18:18:21;5.20;99.90